Terminal Aerodrome Forecast
Issued by NWS Tallahassee, FL

Home | Current Version | Previous Version | Text Only | Print | Product List | Glossary On
Versions: 1 2 3 4 5 6 7 8 9 10 11 12 13 14 15
000
FTUS42 KTAE 241700
TAFTLH
TAF
KTLH 241720Z 2418/2518 22010KT P6SM BKN018
     FM241900 22010KT P6SM VCTS SCT030CB BKN040
     FM242200 21005KT P6SM BKN100
     FM250300 22005KT P6SM SCT030=

USA.gov is the U.S. government's official web portal to all federal, state and local government web resources and services.